Time,TemperatureF,DewpointF,PressureIn,WindDirection,WindDirectionDegrees,WindSpeedMPH,WindSpeedGustMPH,Humidity,HourlyPrecipIn,Conditions,Clouds,dailyrainin,SoftwareType,DateUTC
2014-09-20 00:03:00,70.0,69.4,30.01,ENE,67,6.0,8.0,98,0.00,,SKC,0.00,VWS V15.00,2014-09-20 04:03:00,
2014-09-20 00:08:00,70.0,69.4,30.01,ENE,67,5.0,5.0,98,0.00,,SKC,0.00,VWS V15.00,2014-09-20 04:08:00,
2014-09-20 00:13:00,70.0,69.4,30.00,ENE,67,6.0,9.0,98,0.00,,SKC,0.00,VWS V15.00,2014-09-20 04:13:00,
2014-09-20 00:18:00,70.0,69.4,30.01,ENE,67,9.0,9.0,98,0.00,,SKC,0.00,VWS V15.00,2014-09-20 04:18:00,
2014-09-20 00:23:00,70.0,69.4,30.00,ENE,67,4.0,7.0,98,0.00,,SKC,0.00,VWS V15.00,2014-09-20 04:23:00,
2014-09-20 00:28:00,70.0,69.4,30.01,NE,45,6.0,8.0,98,0.00,,SKC,0.00,VWS V15.00,2014-09-20 04:28:00,
2014-09-20 00:33:00,70.0,69.4,30.01,NE,45,6.0,7.0,98,0.00,,SKC,0.00,VWS V15.00,2014-09-20 04:33:00,
2014-09-20 00:38:00,70.0,69.7,30.00,ENE,67,3.0,7.0,99,0.01,,SKC,0.01,VWS V15.00,2014-09-20 04:38:00,
2014-09-20 00:43:00,70.0,69.7,30.00,NNE,22,6.0,6.0,99,0.01,,SKC,0.01,VWS V15.00,2014-09-20 04:43:00,
2014-09-20 00:48:00,70.0,69.7,30.00,NE,45,4.0,7.0,99,0.01,,SKC,0.01,VWS V15.00,2014-09-20 04:48:00,
2014-09-20 00:53:00,70.0,69.7,30.00,NNE,22,6.0,8.0,99,0.01,,SKC,0.01,VWS V15.00,2014-09-20 04:53:00,
2014-09-20 00:58:00,70.0,69.7,30.00,NNW,337,4.0,8.0,99,0.01,,SKC,0.01,VWS V15.00,2014-09-20 04:58:00,
2014-09-20 01:03:00,70.0,69.7,30.00,NE,45,5.0,9.0,99,0.01,,SKC,0.01,VWS V15.00,2014-09-20 05:03:00,
2014-09-20 01:08:00,70.0,69.7,29.99,North,360,8.0,8.0,99,0.01,,SKC,0.01,VWS V15.00,2014-09-20 05:08:00,
2014-09-20 01:13:00,70.0,69.7,29.99,NNW,337,4.0,9.0,99,0.01,,SKC,0.01,VWS V15.00,2014-09-20 05:13:00,
2014-09-20 01:18:00,70.0,69.7,29.99,NW,315,4.0,7.0,99,0.01,,SKC,0.01,VWS V15.00,2014-09-20 05:18:00,
2014-09-20 01:23:00,70.0,69.7,29.98,NNE,22,10.0,12.0,99,0.01,,SKC,0.01,VWS V15.00,2014-09-20 05:23:00,
2014-09-20 01:28:00,70.0,69.7,29.98,NNE,22,8.0,9.0,99,0.02,,SKC,0.02,VWS V15.00,2014-09-20 05:28:00,
2014-09-20 01:33:00,70.0,69.7,29.98,NNW,337,6.0,8.0,99,0.02,,SKC,0.02,VWS V15.00,2014-09-20 05:33:00,
2014-09-20 01:38:00,70.0,69.7,29.98,NNE,22,8.0,10.0,99,0.02,,SKC,0.02,VWS V15.00,2014-09-20 05:38:00,
2014-09-20 01:42:00,70.0,69.7,29.98,NNE,22,8.0,10.0,99,0.01,,SKC,0.02,VWS V15.00,2014-09-20 05:42:00,
2014-09-20 01:47:00,70.0,69.7,29.98,ENE,67,9.0,11.0,99,0.01,,SKC,0.02,VWS V15.00,2014-09-20 05:47:00,
2014-09-20 01:52:00,70.0,69.7,29.98,ESE,112,3.0,6.0,99,0.01,,SKC,0.02,VWS V15.00,2014-09-20 05:52:00,
2014-09-20 01:57:00,70.0,69.7,29.98,NNE,22,4.0,9.0,99,0.01,,SKC,0.02,VWS V15.00,2014-09-20 05:57:00,
2014-09-20 02:02:00,70.0,69.7,29.97,North,360,4.0,7.0,99,0.01,,SKC,0.02,VWS V15.00,2014-09-20 06:02:00,
2014-09-20 02:07:00,70.0,69.7,29.97,NNW,337,8.0,8.0,99,0.01,,SKC,0.02,VWS V15.00,2014-09-20 06:07:00,
2014-09-20 02:12:00,70.0,69.7,29.97,NNE,22,7.0,7.0,99,0.01,,SKC,0.02,VWS V15.00,2014-09-20 06:12:00,
2014-09-20 02:17:00,70.0,69.7,29.97,NNE,22,5.0,6.0,99,0.01,,SKC,0.02,VWS V15.00,2014-09-20 06:17:00,
2014-09-20 02:22:00,70.0,69.7,29.97,ENE,67,6.0,8.0,99,0.01,,SKC,0.02,VWS V15.00,2014-09-20 06:22:00,
2014-09-20 02:27:00,70.0,69.7,29.96,NNE,22,7.0,8.0,99,0.00,,SKC,0.02,VWS V15.00,2014-09-20 06:27:00,
2014-09-20 02:32:00,70.0,69.7,29.97,NNE,22,4.0,9.0,99,0.00,,SKC,0.02,VWS V15.00,2014-09-20 06:32:00,
2014-09-20 02:37:00,70.0,69.7,29.96,NNE,22,7.0,11.0,99,0.00,,SKC,0.02,VWS V15.00,2014-09-20 06:37:00,
2014-09-20 02:42:00,70.0,69.7,29.96,NNE,22,6.0,9.0,99,0.00,,SKC,0.02,VWS V15.00,2014-09-20 06:42:00,
2014-09-20 02:47:00,70.0,69.7,29.96,ENE,67,4.0,8.0,99,0.00,,SKC,0.02,VWS V15.00,2014-09-20 06:47:00,
2014-09-20 02:52:00,70.0,69.7,29.96,ENE,67,4.0,7.0,99,0.00,,SKC,0.02,VWS V15.00,2014-09-20 06:52:00,
2014-09-20 02:57:00,70.0,69.4,29.95,NNE,22,4.0,7.0,98,0.00,,SKC,0.02,VWS V15.00,2014-09-20 06:57:00,
2014-09-20 03:02:00,70.0,69.4,29.95,NNE,22,7.0,7.0,98,0.00,,SKC,0.02,VWS V15.00,2014-09-20 07:02:00,
2014-09-20 03:07:00,70.0,69.7,29.95,NNE,22,5.0,9.0,99,0.00,,SKC,0.02,VWS V15.00,2014-09-20 07:07:00,
2014-09-20 03:12:00,70.0,69.7,29.95,NNW,337,2.0,7.0,99,0.00,,SKC,0.02,VWS V15.00,2014-09-20 07:12:00,
2014-09-20 03:17:00,70.0,69.7,29.95,NNE,22,3.0,8.0,99,0.00,,SKC,0.02,VWS V15.00,2014-09-20 07:17:00,
2014-09-20 03:22:00,70.0,69.7,29.95,NNW,337,8.0,10.0,99,0.00,,SKC,0.02,VWS V15.00,2014-09-20 07:22:00,
2014-09-20 03:27:00,70.0,69.7,29.95,North,360,4.0,4.0,99,0.00,,SKC,0.02,VWS V15.00,2014-09-20 07:27:00,
2014-09-20 03:32:00,70.0,69.7,29.95,North,360,4.0,6.0,99,0.00,,SKC,0.02,VWS V15.00,2014-09-20 07:32:00,
2014-09-20 03:37:00,70.0,69.7,29.95,NNE,22,5.0,5.0,99,0.00,,SKC,0.02,VWS V15.00,2014-09-20 07:37:00,
2014-09-20 03:42:00,70.0,69.7,29.94,North,360,6.0,6.0,99,0.00,,SKC,0.02,VWS V15.00,2014-09-20 07:42:00,
2014-09-20 03:47:00,70.0,69.7,29.94,NW,315,3.0,6.0,99,0.00,,SKC,0.02,VWS V15.00,2014-09-20 07:47:00,
2014-09-20 03:52:00,70.0,69.7,29.94,NNE,22,7.0,8.0,99,0.00,,SKC,0.02,VWS V15.00,2014-09-20 07:52:00,
2014-09-20 03:57:00,70.0,69.7,29.94,North,360,5.0,8.0,99,0.00,,SKC,0.02,VWS V15.00,2014-09-20 07:57:00,
2014-09-20 04:02:00,70.0,69.7,29.93,NNE,22,7.0,8.0,99,0.00,,SKC,0.02,VWS V15.00,2014-09-20 08:02:00,
2014-09-20 04:07:00,70.0,69.4,29.93,North,360,6.0,6.0,98,0.00,,SKC,0.02,VWS V15.00,2014-09-20 08:07:00,
2014-09-20 04:12:00,70.0,69.4,29.93,NNE,22,4.0,6.0,98,0.00,,SKC,0.02,VWS V15.00,2014-09-20 08:12:00,
2014-09-20 04:17:00,70.0,69.7,29.94,NNE,22,5.0,6.0,99,0.00,,SKC,0.02,VWS V15.00,2014-09-20 08:17:00,
2014-09-20 04:22:00,70.0,69.7,29.93,NNW,337,6.0,7.0,99,0.00,,SKC,0.02,VWS V15.00,2014-09-20 08:22:00,
2014-09-20 04:27:00,70.0,69.7,29.93,NNW,337,3.0,6.0,99,0.00,,SKC,0.02,VWS V15.00,2014-09-20 08:27:00,
2014-09-20 04:32:00,70.0,69.7,29.93,North,360,3.0,6.0,99,0.00,,SKC,0.02,VWS V15.00,2014-09-20 08:32:00,
2014-09-20 04:37:00,70.0,69.7,29.93,NNW,337,3.0,6.0,99,0.00,,SKC,0.02,VWS V15.00,2014-09-20 08:37:00,
2014-09-20 04:42:00,70.0,69.7,29.93,NNW,337,7.0,7.0,99,0.00,,SKC,0.02,VWS V15.00,2014-09-20 08:42:00,
2014-09-20 04:47:00,70.0,69.7,29.93,NNE,22,5.0,5.0,99,0.00,,SKC,0.02,VWS V15.00,2014-09-20 08:47:00,
2014-09-20 04:52:00,70.0,69.7,29.94,NNW,337,4.0,5.0,99,0.01,,SKC,0.03,VWS V15.00,2014-09-20 08:52:00,
2014-09-20 04:57:00,70.0,69.7,29.93,NNW,337,6.0,7.0,99,0.01,,SKC,0.03,VWS V15.00,2014-09-20 08:57:00,
2014-09-20 05:02:00,70.0,69.7,29.93,NNW,337,6.0,6.0,99,0.01,,SKC,0.03,VWS V15.00,2014-09-20 09:02:00,
2014-09-20 05:07:00,70.0,69.7,29.93,North,360,4.0,8.0,99,0.02,,SKC,0.04,VWS V15.00,2014-09-20 09:07:00,
2014-09-20 05:12:00,70.0,69.7,29.93,NNW,337,4.0,4.0,99,0.02,,SKC,0.04,VWS V15.00,2014-09-20 09:12:00,
2014-09-20 05:17:00,70.0,69.7,29.93,NNW,337,5.0,5.0,99,0.02,,SKC,0.04,VWS V15.00,2014-09-20 09:17:00,
2014-09-20 05:22:00,70.0,69.7,29.94,NNE,22,3.0,3.0,99,0.02,,SKC,0.04,VWS V15.00,2014-09-20 09:22:00,
2014-09-20 05:27:00,70.0,69.7,29.94,North,360,2.0,3.0,99,0.02,,SKC,0.04,VWS V15.00,2014-09-20 09:27:00,
2014-09-20 05:32:00,70.0,69.7,29.94,North,360,2.0,2.0,99,0.02,,SKC,0.04,VWS V15.00,2014-09-20 09:32:00,
2014-09-20 05:37:00,70.0,69.7,29.94,NNE,22,5.0,5.0,99,0.02,,SKC,0.04,VWS V15.00,2014-09-20 09:37:00,
2014-09-20 05:42:00,70.0,69.7,29.94,NNE,22,2.0,2.0,99,0.02,,SKC,0.04,VWS V15.00,2014-09-20 09:42:00,
2014-09-20 05:47:00,70.0,69.7,29.94,NNE,22,6.0,7.0,99,0.02,,SKC,0.04,VWS V15.00,2014-09-20 09:47:00,
2014-09-20 05:52:00,70.0,69.7,29.94,NNE,22,5.0,5.0,99,0.01,,SKC,0.04,VWS V15.00,2014-09-20 09:52:00,
2014-09-20 05:57:00,70.0,69.7,29.94,NE,45,8.0,9.0,99,0.01,,SKC,0.04,VWS V15.00,2014-09-20 09:57:00,
2014-09-20 06:02:00,70.0,69.7,29.94,North,360,2.0,3.0,99,0.02,,SKC,0.05,VWS V15.00,2014-09-20 10:02:00,
2014-09-20 06:07:00,70.0,69.7,29.93,NNE,22,2.0,2.0,99,0.01,,SKC,0.05,VWS V15.00,2014-09-20 10:07:00,
2014-09-20 06:12:00,70.0,69.7,29.94,NNW,337,4.0,4.0,99,0.01,,SKC,0.05,VWS V15.00,2014-09-20 10:12:00,
2014-09-20 06:17:00,70.0,69.7,29.94,NNW,337,6.0,6.0,99,0.01,,SKC,0.05,VWS V15.00,2014-09-20 10:17:00,
2014-09-20 06:22:00,70.0,69.7,29.94,NNW,337,4.0,5.0,99,0.02,,SKC,0.06,VWS V15.00,2014-09-20 10:22:00,
2014-09-20 06:27:00,70.0,69.7,29.94,NNW,337,4.0,4.0,99,0.02,,SKC,0.06,VWS V15.00,2014-09-20 10:27:00,
2014-09-20 06:32:00,70.0,69.7,29.94,NNW,337,6.0,6.0,99,0.02,,SKC,0.06,VWS V15.00,2014-09-20 10:32:00,
2014-09-20 06:37:00,70.0,69.7,29.94,NNW,337,4.0,4.0,99,0.02,,SKC,0.06,VWS V15.00,2014-09-20 10:37:00,
2014-09-20 06:42:00,70.0,69.7,29.94,North,360,8.0,8.0,99,0.02,,SKC,0.06,VWS V15.00,2014-09-20 10:42:00,
2014-09-20 06:47:00,70.0,69.7,29.94,NW,315,4.0,5.0,99,0.02,,SKC,0.06,VWS V15.00,2014-09-20 10:47:00,
2014-09-20 06:52:00,70.0,69.7,29.94,North,360,6.0,7.0,99,0.02,,SKC,0.06,VWS V15.00,2014-09-20 10:52:00,
2014-09-20 06:57:00,70.0,69.7,29.94,North,360,5.0,5.0,99,0.02,,SKC,0.06,VWS V15.00,2014-09-20 10:57:00,
2014-09-20 07:02:00,70.0,69.7,29.94,NNW,337,3.0,4.0,99,0.01,,SKC,0.06,VWS V15.00,2014-09-20 11:02:00,
2014-09-20 07:07:00,70.0,69.7,29.94,NNW,337,6.0,6.0,99,0.01,,SKC,0.06,VWS V15.00,2014-09-20 11:07:00,
2014-09-20 07:12:00,70.0,69.7,29.94,NNW,337,4.0,4.0,99,0.01,,SKC,0.06,VWS V15.00,2014-09-20 11:12:00,
2014-09-20 07:17:00,70.0,69.7,29.94,North,360,6.0,8.0,99,0.01,,SKC,0.06,VWS V15.00,2014-09-20 11:17:00,
2014-09-20 07:22:00,70.0,69.7,29.94,NNE,22,6.0,6.0,99,0.00,,SKC,0.06,VWS V15.00,2014-09-20 11:22:00,
2014-09-20 07:27:00,70.0,69.7,29.94,NNW,337,5.0,5.0,99,0.00,,SKC,0.06,VWS V15.00,2014-09-20 11:27:00,
2014-09-20 07:32:00,70.0,69.7,29.95,NNW,337,4.0,5.0,99,0.00,,SKC,0.06,VWS V15.00,2014-09-20 11:32:00,
2014-09-20 07:37:00,70.0,69.7,29.95,North,360,3.0,3.0,99,0.00,,SKC,0.06,VWS V15.00,2014-09-20 11:37:00,
2014-09-20 07:42:00,70.0,69.7,29.95,NNW,337,0.0,0.0,99,0.00,,SKC,0.06,VWS V15.00,2014-09-20 11:42:00,
2014-09-20 07:47:00,70.0,69.7,29.95,North,360,1.0,5.0,99,0.00,,SKC,0.06,VWS V15.00,2014-09-20 11:47:00,
2014-09-20 07:52:00,70.0,69.7,29.95,NNW,337,2.0,2.0,99,0.00,,SKC,0.06,VWS V15.00,2014-09-20 11:52:00,
2014-09-20 07:57:00,70.0,69.7,29.96,NNW,337,4.0,4.0,99,0.00,,SKC,0.06,VWS V15.00,2014-09-20 11:57:00,
2014-09-20 08:02:00,70.0,69.7,29.95,NNW,337,0.0,0.0,99,0.00,,SKC,0.06,VWS V15.00,2014-09-20 12:02:00,
2014-09-20 08:07:00,70.0,69.7,29.96,NNW,337,3.0,3.0,99,0.00,,SKC,0.06,VWS V15.00,2014-09-20 12:07:00,
2014-09-20 08:12:00,70.0,69.7,29.96,NNW,337,4.0,4.0,99,0.00,,SKC,0.06,VWS V15.00,2014-09-20 12:12:00,
2014-09-20 08:17:00,70.0,69.7,29.96,ENE,67,0.0,2.0,99,0.00,,SKC,0.06,VWS V15.00,2014-09-20 12:17:00,
2014-09-20 08:22:00,70.0,69.7,29.97,NW,315,2.0,4.0,99,0.00,,SKC,0.06,VWS V15.00,2014-09-20 12:22:00,
2014-09-20 08:27:00,70.0,69.7,29.97,NW,315,6.0,6.0,99,0.00,,SKC,0.06,VWS V15.00,2014-09-20 12:27:00,
2014-09-20 08:32:00,71.0,70.7,29.98,WNW,292,4.0,4.0,99,0.00,,SKC,0.06,VWS V15.00,2014-09-20 12:32:00,
2014-09-20 08:37:00,71.0,70.7,29.98,NW,315,4.0,5.0,99,0.00,,SKC,0.06,VWS V15.00,2014-09-20 12:37:00,
2014-09-20 08:42:00,71.0,70.7,29.97,NW,315,5.0,6.0,99,0.00,,SKC,0.06,VWS V15.00,2014-09-20 12:42:00,
2014-09-20 08:46:00,71.0,70.7,29.97,North,360,4.0,6.0,99,0.00,,SKC,0.06,VWS V15.00,2014-09-20 12:46:00,
2014-09-20 08:51:00,71.0,70.7,29.96,NNW,337,6.0,7.0,99,0.00,,SKC,0.06,VWS V15.00,2014-09-20 12:51:00,
2014-09-20 08:56:00,71.0,70.7,29.96,NW,315,5.0,8.0,99,0.00,,SKC,0.06,VWS V15.00,2014-09-20 12:56:00,
2014-09-20 09:01:00,71.0,70.7,29.97,NW,315,5.0,7.0,99,0.00,,SKC,0.06,VWS V15.00,2014-09-20 13:01:00,
2014-09-20 09:06:00,71.0,70.7,29.97,NW,315,8.0,9.0,99,0.00,,SKC,0.06,VWS V15.00,2014-09-20 13:06:00,
2014-09-20 09:07:00,71.0,70.7,29.97,NW,315,5.0,7.0,99,0.00,,SKC,0.06,VWS V15.00,2014-09-20 13:07:00,
2014-09-20 09:12:00,71.0,70.7,29.97,NNW,337,3.0,5.0,99,0.00,,SKC,0.06,VWS V15.00,2014-09-20 13:12:00,
2014-09-20 09:17:00,71.0,70.7,29.98,NW,315,6.0,7.0,99,0.00,,SKC,0.06,VWS V15.00,2014-09-20 13:17:00,
2014-09-20 09:22:00,71.0,70.7,29.98,North,360,2.0,5.0,99,0.00,,SKC,0.06,VWS V15.00,2014-09-20 13:22:00,
2014-09-20 09:27:00,71.0,70.7,29.98,NW,315,7.0,7.0,99,0.00,,SKC,0.06,VWS V15.00,2014-09-20 13:27:00,
2014-09-20 09:32:00,72.0,71.4,29.98,WNW,292,6.0,9.0,98,0.00,,SKC,0.06,VWS V15.00,2014-09-20 13:32:00,
2014-09-20 09:37:00,72.0,71.4,29.98,NNW,337,5.0,9.0,98,0.00,,SKC,0.06,VWS V15.00,2014-09-20 13:37:00,
2014-09-20 09:42:00,72.0,71.1,29.98,NNW,337,7.0,10.0,97,0.00,,SKC,0.06,VWS V15.00,2014-09-20 13:42:00,
2014-09-20 09:47:00,72.0,71.1,29.98,WNW,292,5.0,7.0,97,0.00,,SKC,0.06,VWS V15.00,2014-09-20 13:47:00,
2014-09-20 09:52:00,73.0,71.8,29.98,WNW,292,7.0,8.0,96,0.00,,SKC,0.06,VWS V15.00,2014-09-20 13:52:00,
2014-09-20 09:57:00,73.0,71.8,29.98,NNW,337,4.0,7.0,96,0.00,,SKC,0.06,VWS V15.00,2014-09-20 13:57:00,
2014-09-20 10:02:00,73.0,71.5,29.98,NW,315,7.0,8.0,95,0.00,,SKC,0.06,VWS V15.00,2014-09-20 14:02:00,
2014-09-20 10:07:00,74.0,72.5,29.98,NW,315,8.0,9.0,95,0.00,,SKC,0.06,VWS V15.00,2014-09-20 14:07:00,
2014-09-20 10:12:00,73.0,71.5,29.98,WNW,292,6.0,7.0,95,0.00,,SKC,0.06,VWS V15.00,2014-09-20 14:12:00,
2014-09-20 10:17:00,74.0,72.2,29.99,NW,315,4.0,9.0,94,0.00,,SKC,0.06,VWS V15.00,2014-09-20 14:17:00,
2014-09-20 10:22:00,74.0,72.2,29.99,NW,315,5.0,7.0,94,0.00,,SKC,0.06,VWS V15.00,2014-09-20 14:22:00,
2014-09-20 10:27:00,74.0,71.8,29.99,NW,315,6.0,7.0,93,0.00,,SKC,0.06,VWS V15.00,2014-09-20 14:27:00,
2014-09-20 10:32:00,74.0,71.8,29.99,NNW,337,9.0,9.0,93,0.00,,SKC,0.06,VWS V15.00,2014-09-20 14:32:00,
2014-09-20 10:37:00,75.0,72.5,29.99,NNW,337,6.0,8.0,92,0.00,,SKC,0.06,VWS V15.00,2014-09-20 14:37:00,
2014-09-20 10:42:00,75.0,72.2,29.99,NNW,337,6.0,7.0,91,0.00,,SKC,0.06,VWS V15.00,2014-09-20 14:42:00,
2014-09-20 10:47:00,75.0,71.9,29.99,NW,315,7.0,10.0,90,0.00,,SKC,0.06,VWS V15.00,2014-09-20 14:47:00,
2014-09-20 10:52:00,75.0,71.9,29.99,NW,315,9.0,10.0,90,0.00,,SKC,0.06,VWS V15.00,2014-09-20 14:52:00,
2014-09-20 10:57:00,75.0,71.9,29.98,NNW,337,4.0,7.0,90,0.00,,SKC,0.06,VWS V15.00,2014-09-20 14:57:00,
2014-09-20 11:02:00,75.0,71.5,29.99,North,360,5.0,11.0,89,0.00,,SKC,0.06,VWS V15.00,2014-09-20 15:02:00,
2014-09-20 11:05:00,75.0,71.5,29.99,NW,315,8.0,9.0,89,0.00,,SKC,0.06,VWS V15.00,2014-09-20 15:05:00,
2014-09-20 11:10:00,75.0,71.5,29.99,NNW,337,10.0,11.0,89,0.00,,SKC,0.06,VWS V15.00,2014-09-20 15:10:00,
2014-09-20 11:14:00,75.0,71.5,29.99,NW,315,6.0,7.0,89,0.00,,SKC,0.06,VWS V15.00,2014-09-20 15:14:00,
2014-09-20 11:19:00,75.0,71.9,29.99,NW,315,6.0,9.0,90,0.00,,SKC,0.06,VWS V15.00,2014-09-20 15:19:00,
2014-09-20 11:24:00,75.0,71.9,29.99,NNW,337,5.0,5.0,90,0.00,,SKC,0.06,VWS V15.00,2014-09-20 15:24:00,
2014-09-20 11:29:00,75.0,71.5,29.99,NW,315,6.0,6.0,89,0.00,,SKC,0.06,VWS V15.00,2014-09-20 15:29:00,
2014-09-20 11:34:00,76.0,72.2,29.99,NNW,337,5.0,6.0,88,0.00,,SKC,0.06,VWS V15.00,2014-09-20 15:34:00,
2014-09-20 11:39:00,76.0,71.5,29.98,NNW,337,8.0,8.0,86,0.00,,SKC,0.06,VWS V15.00,2014-09-20 15:39:00,
2014-09-20 11:44:00,76.0,71.5,29.99,NW,315,6.0,6.0,86,0.00,,SKC,0.06,VWS V15.00,2014-09-20 15:44:00,
2014-09-20 11:49:00,76.0,71.5,29.98,NW,315,3.0,4.0,86,0.00,,SKC,0.06,VWS V15.00,2014-09-20 15:49:00,
2014-09-20 11:54:00,77.0,72.2,29.98,NNW,337,3.0,5.0,85,0.00,,SKC,0.06,VWS V15.00,2014-09-20 15:54:00,
2014-09-20 11:59:00,78.0,72.4,29.98,NNW,337,8.0,8.0,83,3.00,,SKC,0.06,VWS V15.00,2014-09-20 15:59:00,
2014-09-20 12:04:00,78.0,72.1,29.98,NNW,337,5.0,5.0,82,0.00,,SKC,0.06,VWS V15.00,2014-09-20 16:04:00,
2014-09-20 12:09:00,78.0,72.1,29.98,NW,315,3.0,10.0,82,0.00,,SKC,0.06,VWS V15.00,2014-09-20 16:09:00,
2014-09-20 12:14:00,78.0,72.1,29.98,NNW,337,6.0,6.0,82,0.00,,SKC,0.06,VWS V15.00,2014-09-20 16:14:00,
2014-09-20 12:19:00,78.0,72.1,29.99,NNW,337,8.0,8.0,82,0.00,,SKC,0.06,VWS V15.00,2014-09-20 16:19:00,
2014-09-20 12:24:00,78.0,72.1,29.98,NW,315,4.0,8.0,82,0.00,,SKC,0.06,VWS V15.00,2014-09-20 16:24:00,
2014-09-20 12:29:00,78.0,72.1,29.98,NNW,337,10.0,10.0,82,0.00,,SKC,0.06,VWS V15.00,2014-09-20 16:29:00,
2014-09-20 12:34:00,78.0,72.1,29.98,NNW,337,11.0,11.0,82,0.00,,SKC,0.06,VWS V15.00,2014-09-20 16:34:00,
2014-09-20 12:39:00,77.0,71.1,29.98,North,360,10.0,10.0,82,0.00,,SKC,0.06,VWS V15.00,2014-09-20 16:39:00,
2014-09-20 12:44:00,77.0,71.1,29.98,NNW,337,5.0,8.0,82,0.00,,SKC,0.06,VWS V15.00,2014-09-20 16:44:00,
2014-09-20 12:49:00,78.0,72.1,29.98,NNE,22,2.0,2.0,82,0.00,,SKC,0.06,VWS V15.00,2014-09-20 16:49:00,
2014-09-20 12:54:00,79.0,72.7,29.98,NNW,337,7.0,7.0,81,0.00,,SKC,0.06,VWS V15.00,2014-09-20 16:54:00,
2014-09-20 12:59:00,80.0,72.5,29.98,NNW,337,3.0,4.0,78,40.01,,SKC,0.06,VWS V15.00,2014-09-20 16:59:00,
2014-09-20 13:04:00,80.0,71.8,29.97,WNW,292,4.0,9.0,76,0.00,,SKC,0.06,VWS V15.00,2014-09-20 17:04:00,
2014-09-20 13:09:00,80.0,71.8,29.97,NNW,337,8.0,10.0,76,0.00,,SKC,0.06,VWS V15.00,2014-09-20 17:09:00,
2014-09-20 13:14:00,80.0,71.8,29.97,NNW,337,6.0,7.0,76,0.00,,SKC,0.06,VWS V15.00,2014-09-20 17:14:00,
2014-09-20 13:19:00,80.0,71.8,29.97,NNW,337,2.0,7.0,76,0.00,,SKC,0.06,VWS V15.00,2014-09-20 17:19:00,
2014-09-20 13:24:00,80.0,71.8,29.97,North,360,4.0,4.0,76,0.00,,SKC,0.06,VWS V15.00,2014-09-20 17:24:00,
2014-09-20 13:29:00,81.0,71.9,29.97,West,270,5.0,6.0,74,0.00,,SKC,0.06,VWS V15.00,2014-09-20 17:29:00,
2014-09-20 13:34:00,81.0,71.5,29.97,West,270,0.0,2.0,73,0.00,,SKC,0.06,VWS V15.00,2014-09-20 17:34:00,
2014-09-20 13:39:00,81.0,71.5,29.96,NNE,22,3.0,5.0,73,0.00,,SKC,0.06,VWS V15.00,2014-09-20 17:39:00,
2014-09-20 13:44:00,81.0,71.5,29.96,NNW,337,4.0,4.0,73,0.00,,SKC,0.06,VWS V15.00,2014-09-20 17:44:00,
2014-09-20 13:49:00,82.0,72.1,29.96,NNE,22,3.0,6.0,72,0.00,,SKC,0.06,VWS V15.00,2014-09-20 17:49:00,
2014-09-20 13:54:00,83.0,72.2,29.96,NNW,337,4.0,7.0,70,0.00,,SKC,0.06,VWS V15.00,2014-09-20 17:54:00,
2014-09-20 13:59:00,83.0,71.4,29.96,North,360,2.0,6.0,68,43.01,,SKC,0.06,VWS V15.00,2014-09-20 17:59:00,
2014-09-20 14:04:00,82.0,70.4,29.95,NNW,337,6.0,7.0,68,0.00,,SKC,0.06,VWS V15.00,2014-09-20 18:04:00,
2014-09-20 14:09:00,82.0,70.8,29.95,WNW,292,4.0,5.0,69,0.00,,SKC,0.06,VWS V15.00,2014-09-20 18:09:00,
2014-09-20 14:14:00,82.0,71.3,29.95,WNW,292,3.0,3.0,70,0.00,,SKC,0.06,VWS V15.00,2014-09-20 18:14:00,
2014-09-20 14:19:00,82.0,71.3,29.95,West,270,4.0,5.0,70,0.00,,SKC,0.06,VWS V15.00,2014-09-20 18:19:00,
2014-09-20 14:24:00,82.0,71.3,29.94,NW,315,5.0,5.0,70,0.00,,SKC,0.06,VWS V15.00,2014-09-20 18:24:00,
2014-09-20 14:29:00,82.0,70.8,29.94,NNW,337,8.0,8.0,69,0.00,,SKC,0.06,VWS V15.00,2014-09-20 18:29:00,
2014-09-20 14:34:00,82.0,70.8,29.94,NNW,337,4.0,4.0,69,0.00,,SKC,0.06,VWS V15.00,2014-09-20 18:34:00,
2014-09-20 14:39:00,82.0,70.8,29.94,ENE,67,2.0,2.0,69,0.00,,SKC,0.06,VWS V15.00,2014-09-20 18:39:00,
2014-09-20 14:44:00,83.0,71.4,29.93,NNW,337,5.0,8.0,68,0.00,,SKC,0.06,VWS V15.00,2014-09-20 18:44:00,
2014-09-20 14:49:00,84.0,71.4,29.94,NNE,22,4.0,4.0,66,0.00,,SKC,0.06,VWS V15.00,2014-09-20 18:49:00,
2014-09-20 14:54:00,84.0,71.0,29.94,NNE,22,3.0,5.0,65,0.00,,SKC,0.06,VWS V15.00,2014-09-20 18:54:00,
2014-09-20 14:59:00,83.0,70.5,29.93,NW,315,4.0,4.0,66,44.01,,SKC,0.06,VWS V15.00,2014-09-20 18:59:00,
2014-09-20 15:04:00,83.0,70.9,29.93,NW,315,7.0,7.0,67,0.00,,SKC,0.06,VWS V15.00,2014-09-20 19:04:00,
2014-09-20 15:09:00,84.0,71.4,29.93,NW,315,7.0,7.0,66,0.00,,SKC,0.06,VWS V15.00,2014-09-20 19:09:00,
2014-09-20 15:14:00,85.0,71.0,29.93,WNW,292,2.0,5.0,63,0.00,,SKC,0.06,VWS V15.00,2014-09-20 19:14:00,
2014-09-20 15:19:00,85.0,71.0,29.93,NNW,337,3.0,3.0,63,0.00,,SKC,0.06,VWS V15.00,2014-09-20 19:19:00,
2014-09-20 15:24:00,85.0,71.0,29.93,NW,315,4.0,7.0,63,0.00,,SKC,0.06,VWS V15.00,2014-09-20 19:24:00,
2014-09-20 15:29:00,85.0,71.5,29.93,NNW,337,1.0,4.0,64,0.00,,SKC,0.06,VWS V15.00,2014-09-20 19:29:00,
2014-09-20 15:31:00,84.0,70.5,29.93,WNW,292,3.0,4.0,64,0.00,,SKC,0.06,VWS V15.00,2014-09-20 19:31:00,
2014-09-20 15:36:00,84.0,70.5,29.93,NW,315,7.0,7.0,64,0.00,,SKC,0.06,VWS V15.00,2014-09-20 19:36:00,
2014-09-20 15:41:00,84.0,71.0,29.93,WNW,292,3.0,6.0,65,0.00,,SKC,0.06,VWS V15.00,2014-09-20 19:41:00,
2014-09-20 15:46:00,84.0,71.4,29.93,West,270,4.0,6.0,66,0.00,,SKC,0.06,VWS V15.00,2014-09-20 19:46:00,
2014-09-20 15:51:00,84.0,71.4,29.93,North,360,7.0,8.0,66,0.00,,SKC,0.06,VWS V15.00,2014-09-20 19:51:00,
2014-09-20 15:56:00,85.0,71.5,29.93,WNW,292,3.0,4.0,64,0.00,,SKC,0.06,VWS V15.00,2014-09-20 19:56:00,
2014-09-20 16:01:00,85.0,70.5,29.93,ENE,67,2.0,7.0,62,0.00,,SKC,0.06,VWS V15.00,2014-09-20 20:01:00,
2014-09-20 16:06:00,86.0,71.5,29.93,NNW,337,8.0,10.0,62,0.00,,SKC,0.06,VWS V15.00,2014-09-20 20:06:00,
2014-09-20 16:11:00,86.0,70.5,29.93,NNW,337,2.0,4.0,60,0.00,,SKC,0.06,VWS V15.00,2014-09-20 20:11:00,
2014-09-20 16:16:00,85.0,69.6,29.93,NNE,22,3.0,4.0,60,0.00,,SKC,0.06,VWS V15.00,2014-09-20 20:16:00,
2014-09-20 16:21:00,84.0,69.6,29.92,NNW,337,4.0,6.0,62,0.00,,SKC,0.06,VWS V15.00,2014-09-20 20:21:00,
2014-09-20 16:26:00,84.0,70.5,29.92,North,360,4.0,8.0,64,0.00,,SKC,0.06,VWS V15.00,2014-09-20 20:26:00,
2014-09-20 16:31:00,84.0,70.5,29.92,North,360,2.0,2.0,64,0.00,,SKC,0.06,VWS V15.00,2014-09-20 20:31:00,
2014-09-20 16:36:00,84.0,70.5,29.92,ENE,67,4.0,4.0,64,0.00,,SKC,0.06,VWS V15.00,2014-09-20 20:36:00,
2014-09-20 16:41:00,84.0,70.5,29.93,NNW,337,5.0,8.0,64,0.00,,SKC,0.06,VWS V15.00,2014-09-20 20:41:00,
2014-09-20 16:46:00,84.0,70.1,29.92,NNW,337,5.0,6.0,63,0.00,,SKC,0.06,VWS V15.00,2014-09-20 20:46:00,
2014-09-20 16:51:00,85.0,70.1,29.92,NNW,337,0.0,5.0,61,0.00,,SKC,0.06,VWS V15.00,2014-09-20 20:51:00,
2014-09-20 16:56:00,86.0,70.5,29.92,WNW,292,6.0,7.0,60,0.00,,SKC,0.06,VWS V15.00,2014-09-20 20:56:00,
2014-09-20 17:00:00,86.0,70.0,29.92,WNW,292,6.0,6.0,59,0.00,,SKC,0.06,VWS V15.00,2014-09-20 21:00:00,
2014-09-20 17:05:00,85.0,69.1,29.92,NNE,22,1.0,6.0,59,0.00,,SKC,0.06,VWS V15.00,2014-09-20 21:05:00,
2014-09-20 17:10:00,85.0,69.6,29.92,NNW,337,0.0,1.0,60,0.00,,SKC,0.06,VWS V15.00,2014-09-20 21:10:00,
2014-09-20 17:15:00,86.0,70.0,29.93,NNW,337,3.0,5.0,59,0.00,,SKC,0.06,VWS V15.00,2014-09-20 21:15:00,
2014-09-20 17:20:00,86.0,69.5,29.93,NE,45,3.0,3.0,58,0.00,,SKC,0.06,VWS V15.00,2014-09-20 21:20:00,
2014-09-20 17:25:00,86.0,70.0,29.92,WNW,292,7.0,8.0,59,0.00,,SKC,0.06,VWS V15.00,2014-09-20 21:25:00,
2014-09-20 17:30:00,85.0,69.6,29.92,WSW,247,4.0,6.0,60,0.00,,SKC,0.06,VWS V15.00,2014-09-20 21:30:00,
2014-09-20 17:35:00,85.0,69.6,29.93,WNW,292,4.0,5.0,60,0.00,,SKC,0.06,VWS V15.00,2014-09-20 21:35:00,
2014-09-20 17:40:00,85.0,69.6,29.92,NNW,337,4.0,8.0,60,0.00,,SKC,0.06,VWS V15.00,2014-09-20 21:40:00,
2014-09-20 17:45:00,86.0,70.0,29.93,WNW,292,5.0,5.0,59,0.00,,SKC,0.06,VWS V15.00,2014-09-20 21:45:00,
2014-09-20 17:50:00,86.0,69.5,29.92,NNW,337,6.0,6.0,58,0.00,,SKC,0.06,VWS V15.00,2014-09-20 21:50:00,
2014-09-20 17:55:00,86.0,69.5,29.93,WNW,292,0.0,2.0,58,0.00,,SKC,0.06,VWS V15.00,2014-09-20 21:55:00,
2014-09-20 18:00:00,85.0,68.1,29.93,ENE,67,4.0,4.0,57,0.00,,SKC,0.06,VWS V15.00,2014-09-20 22:00:00,
2014-09-20 18:05:00,85.0,68.6,29.93,ENE,67,0.0,0.0,58,0.00,,SKC,0.06,VWS V15.00,2014-09-20 22:05:00,
2014-09-20 18:10:00,85.0,69.1,29.93,NNW,337,4.0,4.0,59,0.00,,SKC,0.06,VWS V15.00,2014-09-20 22:10:00,
2014-09-20 18:15:00,86.0,69.5,29.93,NW,315,3.0,3.0,58,0.00,,SKC,0.06,VWS V15.00,2014-09-20 22:15:00,
2014-09-20 18:20:00,86.0,69.0,29.93,West,270,2.0,4.0,57,0.00,,SKC,0.06,VWS V15.00,2014-09-20 22:20:00,
2014-09-20 18:25:00,85.0,68.6,29.93,WNW,292,0.0,2.0,58,0.00,,SKC,0.06,VWS V15.00,2014-09-20 22:25:00,
2014-09-20 18:30:00,85.0,69.1,29.93,WNW,292,0.0,0.0,59,0.00,,SKC,0.06,VWS V15.00,2014-09-20 22:30:00,
2014-09-20 18:34:00,86.0,70.0,29.93,West,270,0.0,0.0,59,0.00,,SKC,0.06,VWS V15.00,2014-09-20 22:34:00,
2014-09-20 18:39:00,86.0,70.0,29.93,SE,135,0.0,0.0,59,0.00,,SKC,0.06,VWS V15.00,2014-09-20 22:39:00,
2014-09-20 18:43:00,85.0,69.1,29.93,SSE,157,1.0,2.0,59,0.00,,SKC,0.06,VWS V15.00,2014-09-20 22:43:00,
2014-09-20 18:48:00,85.0,69.6,29.93,SSE,157,5.0,5.0,60,0.00,,SKC,0.06,VWS V15.00,2014-09-20 22:48:00,
2014-09-20 18:53:00,84.0,70.1,29.93,SSE,157,5.0,5.0,63,0.00,,SKC,0.06,VWS V15.00,2014-09-20 22:53:00,
2014-09-20 18:58:00,83.0,71.4,29.94,NNE,22,0.0,3.0,68,0.00,,SKC,0.06,VWS V15.00,2014-09-20 22:58:00,
2014-09-20 18:59:00,83.0,71.4,29.93,SSE,157,3.0,4.0,68,46.01,,SKC,0.06,VWS V15.00,2014-09-20 22:59:00,
2014-09-20 19:04:00,82.0,71.7,29.93,SSW,202,2.0,2.0,71,0.00,,SKC,0.06,VWS V15.00,2014-09-20 23:04:00,
2014-09-20 19:09:00,82.0,72.5,29.94,West,270,4.0,7.0,73,0.00,,SKC,0.06,VWS V15.00,2014-09-20 23:09:00,
2014-09-20 19:14:00,81.0,71.5,29.94,West,270,3.0,5.0,73,0.00,,SKC,0.06,VWS V15.00,2014-09-20 23:14:00,
2014-09-20 19:17:00,81.0,71.5,29.94,WNW,292,4.0,4.0,73,0.00,,SKC,0.06,VWS V15.00,2014-09-20 23:17:00,
2014-09-20 19:22:00,81.0,71.9,29.95,West,270,3.0,3.0,74,0.00,,SKC,0.06,VWS V15.00,2014-09-20 23:22:00,
2014-09-20 19:27:00,80.0,71.4,29.95,WSW,247,6.0,6.0,75,0.00,,SKC,0.06,VWS V15.00,2014-09-20 23:27:00,
2014-09-20 19:32:00,80.0,71.8,29.95,West,270,5.0,6.0,76,0.00,,SKC,0.06,VWS V15.00,2014-09-20 23:32:00,
2014-09-20 19:37:00,80.0,71.8,29.95,West,270,5.0,5.0,76,0.00,,SKC,0.06,VWS V15.00,2014-09-20 23:37:00,
2014-09-20 19:42:00,80.0,72.2,29.96,SSW,202,3.0,4.0,77,0.00,,SKC,0.06,VWS V15.00,2014-09-20 23:42:00,
2014-09-20 19:47:00,79.0,71.2,29.95,SW,225,5.0,5.0,77,0.00,,SKC,0.06,VWS V15.00,2014-09-20 23:47:00,
2014-09-20 19:52:00,79.0,71.2,29.95,SW,225,5.0,5.0,77,0.00,,SKC,0.06,VWS V15.00,2014-09-20 23:52:00,
2014-09-20 19:57:00,79.0,71.2,29.96,SW,225,2.0,2.0,77,0.00,,SKC,0.06,VWS V15.00,2014-09-20 23:57:00,
2014-09-20 20:02:00,79.0,71.6,29.96,SE,135,2.0,4.0,78,0.00,,SKC,0.06,VWS V15.00,2014-09-21 00:02:00,
2014-09-20 20:07:00,79.0,71.9,29.96,WSW,247,0.0,3.0,79,0.00,,SKC,0.06,VWS V15.00,2014-09-21 00:07:00,
2014-09-20 20:12:00,79.0,71.9,29.96,WSW,247,3.0,4.0,79,0.00,,SKC,0.06,VWS V15.00,2014-09-21 00:12:00,
2014-09-20 20:17:00,79.0,71.9,29.96,WSW,247,4.0,4.0,79,0.00,,SKC,0.06,VWS V15.00,2014-09-21 00:17:00,
2014-09-20 20:22:00,79.0,72.3,29.97,WSW,247,4.0,4.0,80,0.00,,SKC,0.06,VWS V15.00,2014-09-21 00:22:00,
2014-09-20 20:27:00,78.0,71.3,29.97,WSW,247,3.0,3.0,80,0.00,,SKC,0.06,VWS V15.00,2014-09-21 00:27:00,
2014-09-20 20:32:00,78.0,71.3,29.97,WSW,247,2.0,4.0,80,0.00,,SKC,0.06,VWS V15.00,2014-09-21 00:32:00,
2014-09-20 20:37:00,78.0,71.7,29.97,West,270,2.0,4.0,81,0.00,,SKC,0.06,VWS V15.00,2014-09-21 00:37:00,
2014-09-20 20:42:00,78.0,71.7,29.97,WNW,292,2.0,3.0,81,0.00,,SKC,0.06,VWS V15.00,2014-09-21 00:42:00,
2014-09-20 20:47:00,78.0,71.7,29.97,NW,315,4.0,4.0,81,0.00,,SKC,0.06,VWS V15.00,2014-09-21 00:47:00,
2014-09-20 20:52:00,78.0,71.7,29.98,NW,315,3.0,6.0,81,0.00,,SKC,0.06,VWS V15.00,2014-09-21 00:52:00,
2014-09-20 20:57:00,78.0,71.7,29.98,WNW,292,6.0,8.0,81,0.00,,SKC,0.06,VWS V15.00,2014-09-21 00:57:00,
2014-09-20 21:02:00,78.0,72.1,29.98,WNW,292,4.0,5.0,82,0.00,,SKC,0.06,VWS V15.00,2014-09-21 01:02:00,
2014-09-20 21:07:00,78.0,72.1,29.98,NNW,337,3.0,9.0,82,0.00,,SKC,0.06,VWS V15.00,2014-09-21 01:07:00,
2014-09-20 21:12:00,78.0,71.7,29.98,NNE,22,7.0,10.0,81,0.00,,SKC,0.06,VWS V15.00,2014-09-21 01:12:00,
2014-09-20 21:17:00,78.0,71.3,29.98,NNW,337,10.0,11.0,80,0.00,,SKC,0.06,VWS V15.00,2014-09-21 01:17:00,
2014-09-20 21:22:00,78.0,71.3,29.98,NNW,337,7.0,9.0,80,0.00,,SKC,0.06,VWS V15.00,2014-09-21 01:22:00,
2014-09-20 21:27:00,77.0,70.4,29.98,NNW,337,9.0,14.0,80,0.00,,SKC,0.06,VWS V15.00,2014-09-21 01:27:00,
2014-09-20 21:32:00,77.0,70.4,29.98,NNW,337,13.0,15.0,80,0.00,,SKC,0.06,VWS V15.00,2014-09-21 01:32:00,
2014-09-20 21:37:00,77.0,70.0,29.98,NNW,337,12.0,13.0,79,0.00,,SKC,0.06,VWS V15.00,2014-09-21 01:37:00,
2014-09-20 21:42:00,76.0,69.0,29.98,NNW,337,11.0,14.0,79,0.00,,SKC,0.06,VWS V15.00,2014-09-21 01:42:00,
2014-09-20 21:47:00,76.0,69.4,29.98,NNW,337,8.0,9.0,80,0.00,,SKC,0.06,VWS V15.00,2014-09-21 01:47:00,
2014-09-20 21:52:00,76.0,69.4,29.99,NNW,337,6.0,8.0,80,0.00,,SKC,0.06,VWS V15.00,2014-09-21 01:52:00,
2014-09-20 21:57:00,76.0,69.4,30.00,NNE,22,4.0,6.0,80,0.00,,SKC,0.06,VWS V15.00,2014-09-21 01:57:00,
2014-09-20 22:02:00,75.0,68.8,29.99,North,360,6.0,6.0,81,0.00,,SKC,0.06,VWS V15.00,2014-09-21 02:02:00,
2014-09-20 22:07:00,75.0,69.1,29.99,North,360,5.0,7.0,82,0.00,,SKC,0.06,VWS V15.00,2014-09-21 02:07:00,
2014-09-20 22:12:00,75.0,69.1,29.99,NNW,337,4.0,5.0,82,0.00,,SKC,0.06,VWS V15.00,2014-09-21 02:12:00,
2014-09-20 22:17:00,75.0,69.5,29.99,NNW,337,7.0,8.0,83,0.00,,SKC,0.06,VWS V15.00,2014-09-21 02:17:00,
2014-09-20 22:22:00,75.0,69.5,29.99,North,360,5.0,6.0,83,0.00,,SKC,0.06,VWS V15.00,2014-09-21 02:22:00,
2014-09-20 22:27:00,75.0,69.5,29.99,NNW,337,4.0,6.0,83,0.00,,SKC,0.06,VWS V15.00,2014-09-21 02:27:00,
2014-09-20 22:32:00,75.0,69.8,29.99,NNW,337,4.0,7.0,84,0.00,,SKC,0.06,VWS V15.00,2014-09-21 02:32:00,
2014-09-20 22:37:00,75.0,69.8,30.00,NNW,337,3.0,3.0,84,0.00,,SKC,0.06,VWS V15.00,2014-09-21 02:37:00,
2014-09-20 22:42:00,75.0,69.8,29.99,NNW,337,5.0,7.0,84,0.00,,SKC,0.06,VWS V15.00,2014-09-21 02:42:00,
2014-09-20 22:47:00,75.0,69.8,29.99,NNW,337,7.0,8.0,84,0.00,,SKC,0.06,VWS V15.00,2014-09-21 02:47:00,
2014-09-20 22:52:00,75.0,69.8,29.99,NNW,337,7.0,8.0,84,0.00,,SKC,0.06,VWS V15.00,2014-09-21 02:52:00,
2014-09-20 22:57:00,75.0,70.2,29.99,NNW,337,10.0,10.0,85,0.00,,SKC,0.06,VWS V15.00,2014-09-21 02:57:00,